CPX303 Details

Departure: Guam International Airport (PGUM)
Arrival: Daniel K Inouye International Airport (PHNL) at N/A
Route: DEWSS A450 JIMOS A450 NGUEN A450 BRIUN NONNI BOOKE BOOKE8
Notes:


Current Weather Information
PGUM 251154Z 12006KT 10SM FEW017 SCT026 BKN035 28/24 A2986 RMK AO2 RAB17E26 SLP104 P0000 60000 T02780244 10300 20278 51021
PHNL 251153Z 07012KT 10SM FEW024 FEW038 SCT050 28/21 A2998 RMK AO2 SLP152 60000 T02780206 10289 20278 58010